Time;durP1;ratioP1;P1;durP2;ratioP2;P2;SDS_P1;SDS_P2;PMS_P1;PMS_P2;Temp;Humidity;BMP_temperature;BMP_pressure;BME280_temperature;BME280_humidity;BME280_pressure;Samples;Min_cycle;Max_cycle;Signal;HPM_P1;HPM_P2
2023/06/23 00:00:14;;;;;;;30.52;24.13;;;17.50;99.90;;;;;;5074921;28;20059;-71
2023/06/23 00:02:41;;;;;;;34.72;24.67;;;;;;;;;;5075667;28;20123;-70
2023/06/23 00:05:11;;;;;;;28.63;21.10;;;17.10;99.90;;;;;;5091526;28;20044;-70
2023/06/23 00:07:37;;;;;;;34.33;24.00;;;17.00;99.90;;;;;;5091528;28;20040;-71
2023/06/23 00:10:06;;;;;;;32.97;24.15;;;18.10;99.90;;;;;;5091651;28;20048;-70
2023/06/23 00:12:34;;;;;;;31.73;24.20;;;18.00;99.90;;;;;;5091472;28;20123;-71
2023/06/23 00:15:00;;;;;;;31.98;25.42;;;17.90;99.90;;;;;;5074640;28;20058;-70
2023/06/23 00:17:26;;;;;;;31.23;26.38;;;;;;;;;;5074599;28;20048;-70
2023/06/23 00:19:53;;;;;;;33.85;25.40;;;;;;;;;;5091694;28;20123;-70
2023/06/23 00:22:18;;;;;;;34.22;26.23;;;17.70;99.90;;;;;;5091610;28;20043;-70
2023/06/23 00:24:44;;;;;;;36.42;26.08;;;;;;;;;;5091628;28;20046;-70
2023/06/23 00:27:10;;;;;;;32.70;25.65;;;;;;;;;;5091605;28;20028;-70
2023/06/23 00:29:37;;;;;;;35.30;28.27;;;;;;;;;;5092377;28;20037;-71
2023/06/23 00:32:03;;;;;;;34.67;27.58;;;;;;;;;;5078294;28;20077;-71
2023/06/23 00:34:29;;;;;;;37.05;28.17;;;;;;;;;;5078254;28;20078;-71
2023/06/23 00:36:55;;;;;;;36.60;28.02;;;;;;;;;;5078143;28;20475;-71
2023/06/23 00:39:21;;;;;;;36.65;28.20;;;19.10;99.90;;;;;;5078367;28;20036;-71
2023/06/23 00:41:47;;;;;;;35.53;28.17;;;;;;;;;;5094890;28;20044;-71
2023/06/23 00:44:14;;;;;;;35.63;29.05;;;18.20;99.90;;;;;;5094850;28;20047;-70
2023/06/23 00:46:43;;;;;;;35.17;27.80;;;17.50;99.90;;;;;;5095133;28;20040;-70
2023/06/23 00:49:13;;;;;;;36.35;27.15;;;18.00;99.90;;;;;;5094559;28;20050;-71
2023/06/23 00:51:39;;;;;;;36.35;27.65;;;;;;;;;;5094598;28;20166;-71
2023/06/23 00:54:06;;;;;;;36.40;27.95;;;18.70;99.90;;;;;;5094603;28;20040;-71
2023/06/23 00:56:33;;;;;;;32.03;27.67;;;17.80;99.90;;;;;;5077836;28;20123;-70
2023/06/23 00:58:59;;;;;;;36.17;28.33;;;18.90;99.90;;;;;;5094640;28;20377;-71
2023/06/23 01:01:25;;;;;;;34.92;27.50;;;18.70;99.90;;;;;;5094709;28;20039;-71
2023/06/23 01:03:51;;;;;;;34.58;27.75;;;17.50;99.90;;;;;;5094581;28;20518;-70
2023/06/23 01:06:24;;;;;;;33.88;27.35;;;17.60;99.90;;;;;;5094372;28;20063;-71
2023/06/23 01:09:07;;;;;;;35.67;28.00;;;16.60;99.90;;;;;;5094344;28;20048;-71
2023/06/23 01:11:43;;;;;;;37.65;26.70;;;17.70;99.90;;;;;;5094708;28;20044;-71
2023/06/23 01:14:17;;;;;;;33.13;25.75;;;;;;;;;;5094073;28;20105;-70
2023/06/23 01:16:54;;;;;;;37.63;26.52;;;17.90;99.90;;;;;;5094287;28;20044;-71
2023/06/23 01:19:38;;;;;;;34.03;26.77;;;17.60;99.90;;;;;;5094527;28;20071;-72
2023/06/23 01:22:20;;;;;;;34.75;24.35;;;18.40;99.90;;;;;;5094559;28;20043;-72
2023/06/23 01:24:47;;;;;;;36.63;26.27;;;;;;;;;;5093953;28;20032;-72
2023/06/23 01:27:28;;;;;;;36.65;28.38;;;17.60;99.90;;;;;;5077138;28;20040;-72
2023/06/23 01:29:55;;;;;;;36.00;26.70;;;17.70;99.90;;;;;;5094236;28;20491;-72
2023/06/23 01:32:28;;;;;;;32.90;24.48;;;17.60;99.90;;;;;;5093918;28;20040;-72
2023/06/23 01:34:57;;;;;;;34.10;26.40;;;;;;;;;;5093695;28;20480;-72
2023/06/23 01:37:29;;;;;;;33.42;25.48;;;18.10;99.90;;;;;;5077187;28;20085;-72
2023/06/23 01:39:57;;;;;;;38.70;27.85;;;17.60;99.90;;;;;;5093702;28;20491;-72
2023/06/23 01:42:29;;;;;;;34.67;26.65;;;17.40;99.90;;;;;;5092913;28;20130;-73
2023/06/23 01:44:58;;;;;;;34.25;27.77;;;17.60;99.90;;;;;;5076784;28;20051;-73
2023/06/23 01:47:27;;;;;;;40.97;29.38;;;17.50;99.90;;;;;;5077215;28;20545;-73
2023/06/23 01:49:58;;;;;;;35.55;27.63;;;17.40;99.90;;;;;;5093567;28;20044;-73
2023/06/23 01:52:25;;;;;;;40.03;32.95;;;17.60;99.90;;;;;;5076822;28;20036;-73
2023/06/23 01:54:52;;;;;;;41.95;32.90;;;17.30;99.90;;;;;;5076831;28;20108;-73
2023/06/23 01:57:19;;;;;;;44.17;32.63;;;18.50;99.90;;;;;;5093800;28;20040;-73
2023/06/23 01:59:46;;;;;;;48.20;36.05;;;17.40;99.90;;;;;;5093509;28;20044;-73
2023/06/23 02:02:13;;;;;;;46.63;35.53;;;;;;;;;;5093663;28;20388;-73
2023/06/23 02:04:41;;;;;;;45.72;35.53;;;16.30;99.90;;;;;;5093245;28;20047;-73
2023/06/23 02:07:09;;;;;;;45.95;35.13;;;17.30;99.90;;;;;;5076257;28;20076;-73
2023/06/23 02:09:37;;;;;;;44.70;37.17;;;17.10;99.90;;;;;;5093427;28;20048;-73
2023/06/23 02:12:06;;;;;;;47.28;37.35;;;;;;;;;;5076186;28;20051;-73
2023/06/23 02:14:32;;;;;;;45.33;35.40;;;;;;;;;;5092860;28;20052;-73
2023/06/23 02:16:59;;;;;;;47.25;36.85;;;16.00;99.90;;;;;;5093029;28;20055;-73
2023/06/23 02:19:26;;;;;;;47.13;35.85;;;;;;;;;;5093025;28;20123;-73
2023/06/23 02:21:54;;;;;;;46.83;35.30;;;17.20;99.90;;;;;;5093082;28;20036;-73
2023/06/23 02:24:21;;;;;;;44.42;34.47;;;;;;;;;;5075920;28;20480;-73
2023/06/23 02:26:47;;;;;;;41.13;32.22;;;;;;;;;;5075888;28;20403;-73
2023/06/23 02:29:14;;;;;;;42.58;33.42;;;;;;;;;;5092798;28;20135;-73
2023/06/23 02:31:41;;;;;;;44.97;33.95;;;;;;;;;;5092802;28;20044;-73
2023/06/23 02:34:06;;;;;;;41.10;32.97;;;18.10;99.90;;;;;;5076312;28;20036;-73
2023/06/23 02:36:42;;;;;;;41.88;30.95;;;;;;;;;;5093048;28;20509;-73
2023/06/23 02:39:10;;;;;;;40.72;29.23;;;17.30;99.90;;;;;;5093032;28;20050;-73
2023/06/23 02:41:40;;;;;;;45.03;31.33;;;17.10;99.90;;;;;;5092746;28;20542;-73
2023/06/23 02:44:17;;;;;;;42.80;29.10;;;17.20;99.90;;;;;;5092820;28;20149;-73
2023/06/23 02:46:45;;;;;;;42.60;29.48;;;17.00;99.90;;;;;;5092381;28;20184;-73
2023/06/23 02:49:16;;;;;;;39.53;27.90;;;17.10;99.90;;;;;;5092426;28;20055;-73
2023/06/23 02:51:43;;;;;;;41.08;27.75;;;17.40;99.90;;;;;;5092379;28;20153;-73
2023/06/23 02:54:17;;;;;;;42.65;28.00;;;17.40;99.90;;;;;;5091458;28;20043;-71
2023/06/23 02:56:44;;;;;;;42.25;27.13;;;17.10;99.90;;;;;;5092299;28;20043;-71
2023/06/23 02:59:13;;;;;;;37.83;26.10;;;;;;;;;;5092631;28;20040;-71
2023/06/23 03:01:41;;;;;;;37.65;25.92;;;17.20;99.90;;;;;;5092395;28;20040;-71
2023/06/23 03:04:07;;;;;;;36.92;24.98;;;;;;;;;;5092474;28;20171;-71
2023/06/23 03:06:34;;;;;;;34.00;23.85;;;;;;;;;;5075689;28;20036;-71
2023/06/23 03:09:02;;;;;;;35.13;23.27;;;;;;;;;;5092025;28;20472;-71
2023/06/23 03:11:30;;;;;;;32.83;23.38;;;17.10;99.90;;;;;;5075267;28;20048;-70
2023/06/23 03:13:56;;;;;;;36.08;23.10;;;;;;;;;;5091825;28;20087;-70
2023/06/23 03:16:31;;;;;;;33.60;23.25;;;17.20;99.90;;;;;;5091996;28;20055;-71
2023/06/23 03:19:07;;;;;;;35.10;20.80;;;17.00;99.90;;;;;;5092395;28;20051;-71
2023/06/23 03:21:36;;;;;;;33.15;21.73;;;17.10;99.90;;;;;;5092005;28;20427;-71
2023/06/23 03:24:06;;;;;;;32.03;22.02;;;15.90;99.90;;;;;;5091828;28;20048;-71
2023/06/23 03:26:36;;;;;;;28.13;20.75;;;;;;;;;;5092240;28;20047;-71
2023/06/23 03:29:04;;;;;;;29.88;21.25;;;17.00;99.90;;;;;;5092067;28;20372;-71
2023/06/23 03:31:31;;;;;;;28.83;20.02;;;;;;;;;;5092443;28;20119;-71
2023/06/23 03:33:58;;;;;;;30.25;20.98;;;16.00;99.90;;;;;;5075462;28;20066;-71
2023/06/23 03:36:25;;;;;;;28.88;20.13;;;;;;;;;;5091945;28;20087;-70
2023/06/23 03:44:34;;;;;;;29.27;20.50;;;16.80;99.90;;;;;;5683672;22;20115;-73
2023/06/23 03:50:11;;;;;;;27.30;18.05;;;16.80;99.90;;;;;;4876875;29;20084;-71
2023/06/23 03:52:42;;;;;;;25.67;17.83;;;17.80;99.90;;;;;;4878303;29;20040;-71
2023/06/23 03:55:11;;;;;;;32.25;17.92;;;16.90;99.90;;;;;;4878143;29;20052;-71
2023/06/23 03:57:39;;;;;;;28.02;18.50;;;16.80;99.90;;;;;;4878146;29;20534;-71
2023/06/23 04:00:06;;;;;;;25.27;17.88;;;15.90;99.90;;;;;;4878340;29;20124;-71
2023/06/23 04:02:34;;;;;;;31.13;17.58;;;;;;;;;;4878231;29;20048;-71
2023/06/23 04:05:02;;;;;;;26.85;17.17;;;16.90;99.90;;;;;;4879992;29;20036;-71
2023/06/23 04:07:29;;;;;;;25.67;17.10;;;17.10;99.90;;;;;;4866409;29;20493;-72
2023/06/23 04:10:00;;;;;;;24.77;16.33;;;17.00;99.90;;;;;;4882122;29;20064;-72
2023/06/23 04:12:27;;;;;;;27.48;16.92;;;16.90;99.90;;;;;;4881876;29;20401;-71
2023/06/23 04:14:53;;;;;;;24.38;16.17;;;;;;;;;;4881694;29;20045;-71
2023/06/23 04:17:22;;;;;;;23.40;16.13;;;16.80;99.90;;;;;;4881511;29;20184;-72
2023/06/23 04:19:51;;;;;;;30.10;17.13;;;17.10;99.90;;;;;;4881650;29;20049;-71
2023/06/23 04:22:19;;;;;;;31.38;17.50;;;17.00;99.90;;;;;;4881711;29;20045;-72
2023/06/23 04:24:47;;;;;;;29.50;18.10;;;16.90;99.90;;;;;;4881520;29;20049;-72
2023/06/23 04:27:17;;;;;;;30.17;17.83;;;17.10;99.90;;;;;;4881310;29;20060;-72
2023/06/23 04:29:45;;;;;;;26.05;16.98;;;17.20;99.90;;;;;;4881350;29;20077;-72
2023/06/23 04:32:12;;;;;;;27.05;17.45;;;17.10;99.90;;;;;;4881345;29;20052;-72
2023/06/23 04:34:39;;;;;;;27.92;17.77;;;;;;;;;;4865990;29;20048;-72
2023/06/23 04:37:26;;;;;;;29.67;17.40;;;17.00;99.90;;;;;;4866143;29;20067;-72
2023/06/23 04:40:08;;;;;;;26.20;17.80;;;17.10;99.90;;;;;;4881198;29;20413;-72
2023/06/23 04:42:38;;;;;;;25.57;16.90;;;17.10;99.90;;;;;;4881416;29;20048;-72
2023/06/23 04:45:06;;;;;;;25.63;16.90;;;17.10;99.90;;;;;;4881374;29;20136;-72
2023/06/23 04:47:35;;;;;;;22.30;15.73;;;17.70;99.90;;;;;;4880778;29;20053;-72
2023/06/23 04:50:07;;;;;;;22.75;16.15;;;17.30;99.90;;;;;;4880831;29;20406;-72
2023/06/23 04:52:36;;;;;;;27.23;15.95;;;17.50;99.90;;;;;;4881035;29;20085;-72
2023/06/23 04:55:04;;;;;;;27.38;15.65;;;17.00;99.90;;;;;;4865400;29;20041;-72
2023/06/23 04:57:34;;;;;;;23.63;15.55;;;17.10;99.90;;;;;;4880980;29;20112;-72
2023/06/23 05:00:04;;;;;;;21.88;15.88;;;17.00;99.90;;;;;;4865269;29;20053;-73
2023/06/23 05:02:32;;;;;;;30.13;15.88;;;17.20;99.90;;;;;;4880996;29;20069;-72
2023/06/23 05:04:59;;;;;;;27.60;15.65;;;17.20;99.90;;;;;;4880619;29;20056;-72
2023/06/23 05:07:26;;;;;;;23.38;15.77;;;;;;;;;;4880653;29;20417;-72
2023/06/23 05:09:53;;;;;;;22.85;15.68;;;17.10;99.90;;;;;;4865389;29;20051;-72
2023/06/23 05:12:21;;;;;;;26.83;15.20;;;17.00;99.90;;;;;;4880795;29;20049;-73
2023/06/23 05:14:50;;;;;;;26.95;14.88;;;17.30;99.90;;;;;;4880444;29;20125;-72
2023/06/23 05:17:17;;;;;;;23.52;15.15;;;17.20;99.90;;;;;;4863882;29;20063;-72
2023/06/23 05:19:45;;;;;;;23.58;14.43;;;17.30;99.90;;;;;;4880777;29;20439;-72
2023/06/23 05:22:15;;;;;;;21.60;14.75;;;17.50;99.90;;;;;;4880472;29;20128;-71
2023/06/23 05:24:50;;;;;;;24.42;15.30;;;17.40;99.90;;;;;;4880509;29;20045;-72
2023/06/23 05:27:23;;;;;;;20.48;14.27;;;17.70;99.90;;;;;;4880275;29;20057;-72
2023/06/23 05:29:49;;;;;;;24.52;14.82;;;;;;;;;;4864844;29;20056;-72
2023/06/23 05:32:18;;;;;;;24.50;16.30;;;17.60;99.90;;;;;;4880202;29;20053;-72
2023/06/23 05:34:48;;;;;;;24.63;15.18;;;17.50;99.90;;;;;;4880118;29;20053;-72
2023/06/23 05:37:17;;;;;;;24.90;16.35;;;17.70;99.90;;;;;;4880575;29;20049;-71
2023/06/23 05:39:44;;;;;;;23.67;15.57;;;17.50;99.90;;;;;;4865027;29;20392;-72
2023/06/23 05:42:10;;;;;;;23.35;15.55;;;18.60;99.90;;;;;;4880137;29;20049;-72
2023/06/23 05:44:37;;;;;;;20.77;15.18;;;;;;;;;;4880135;29;20047;-72
2023/06/23 05:47:05;;;;;;;21.48;15.18;;;18.00;99.90;;;;;;4880147;29;20052;-72
2023/06/23 05:49:38;;;;;;;22.45;14.90;;;18.00;99.90;;;;;;4864406;29;20169;-72
2023/06/23 05:52:05;;;;;;;22.50;15.35;;;17.10;99.90;;;;;;4895815;29;20434;-72
2023/06/23 05:54:37;;;;;;;22.60;14.95;;;18.70;99.90;;;;;;4880148;29;20067;-72
2023/06/23 05:57:06;;;;;;;21.25;15.07;;;18.20;99.90;;;;;;4879838;29;20569;-71
2023/06/23 05:59:32;;;;;;;21.88;15.45;;;;;;;;;;4880116;29;20049;-72
2023/06/23 06:02:01;;;;;;;23.55;14.73;;;18.40;99.90;;;;;;4864152;29;20052;-72
2023/06/23 06:04:31;;;;;;;21.20;14.15;;;18.30;99.90;;;;;;4879992;29;20053;-71
2023/06/23 06:06:58;;;;;;;25.27;14.65;;;18.60;99.90;;;;;;4879588;29;20056;-72
2023/06/23 06:09:25;;;;;;;18.52;13.00;;;;;;;;;;4879416;29;20128;-72
2023/06/23 06:11:52;;;;;;;16.30;11.02;;;;;;;;;;4879665;29;20036;-72
2023/06/23 06:14:19;;;;;;;20.52;11.75;;;;;;;;;;4879324;29;20116;-72
2023/06/23 06:16:48;;;;;;;13.90;10.10;;;18.40;99.90;;;;;;4879436;29;20074;-72
2023/06/23 06:19:16;;;;;;;16.13;10.82;;;19.30;99.90;;;;;;4879344;29;20454;-72
2023/06/23 06:21:44;;;;;;;13.82;10.57;;;18.50;99.90;;;;;;4864074;29;20040;-72
2023/06/23 06:24:13;;;;;;;16.33;10.73;;;18.20;99.90;;;;;;4879218;29;20096;-72
2023/06/23 06:26:41;;;;;;;19.00;10.35;;;19.20;99.90;;;;;;4879428;29;20045;-72
2023/06/23 06:29:08;;;;;;;14.20;10.20;;;19.40;99.90;;;;;;4878841;29;20568;-72
2023/06/23 06:31:34;;;;;;;13.82;9.05;;;;;;;;;;4879181;29;20041;-72
2023/06/23 06:34:01;;;;;;;15.48;10.88;;;18.40;99.90;;;;;;4878893;29;20494;-72
2023/06/23 06:36:31;;;;;;;14.63;10.23;;;18.40;99.90;;;;;;4878839;29;20045;-73
2023/06/23 06:38:58;;;;;;;13.32;9.73;;;18.60;99.90;;;;;;4878781;29;20545;-72
2023/06/23 06:41:25;;;;;;;16.60;11.88;;;18.10;99.90;;;;;;4878871;29;20049;-72
2023/06/23 06:43:51;;;;;;;19.25;12.45;;;;;;;;;;4878875;29;20497;-72
2023/06/23 06:46:18;;;;;;;18.83;13.25;;;18.10;99.90;;;;;;4863307;29;20048;-72
2023/06/23 06:48:50;;;;;;;19.63;12.38;;;;;;;;;;4863044;29;20052;-72
2023/06/23 06:51:19;;;;;;;16.70;11.43;;;18.10;99.90;;;;;;4863219;29;20059;-72
2023/06/23 06:53:45;;;;;;;12.68;9.35;;;19.50;99.90;;;;;;4878653;29;20052;-72
2023/06/23 06:56:12;;;;;;;13.75;9.65;;;18.10;99.90;;;;;;4878970;29;20093;-72
2023/06/23 06:58:39;;;;;;;14.82;9.88;;;;;;;;;;4863132;29;20085;-72
2023/06/23 07:01:06;;;;;;;13.60;9.48;;;;;;;;;;4878600;29;20548;-72
2023/06/23 07:03:33;;;;;;;17.35;9.95;;;;;;;;;;4863230;29;20477;-73
2023/06/23 07:05:59;;;;;;;13.40;9.40;;;;;;;;;;4878475;29;20049;-72
2023/06/23 07:08:25;;;;;;;15.55;8.88;;;;;;;;;;4878339;29;20049;-71
2023/06/23 07:10:51;;;;;;;13.85;8.63;;;;;;;;;;4878478;29;20458;-72
2023/06/23 07:13:17;;;;;;;16.17;8.95;;;;;;;;;;4862860;29;20478;-72
2023/06/23 07:15:44;;;;;;;15.38;9.38;;;;;;;;;;4862946;29;20132;-72
2023/06/23 07:18:09;;;;;;;12.80;7.95;;;18.00;99.90;;;;;;4862917;29;20140;-72
2023/06/23 07:20:35;;;;;;;12.30;8.00;;;;;;;;;;4847882;29;20140;-72
2023/06/23 07:23:01;;;;;;;14.30;8.93;;;;;;;;;;4878504;29;20147;-72
2023/06/23 07:25:27;;;;;;;13.85;8.57;;;19.50;99.90;;;;;;4878196;29;20041;-72
2023/06/23 07:27:53;;;;;;;13.43;7.70;;;;;;;;;;4878077;29;20056;-72
2023/06/23 07:30:19;;;;;;;15.77;8.32;;;19.40;99.90;;;;;;4878420;29;20100;-72
2023/06/23 07:32:45;;;;;;;14.85;8.68;;;;;;;;;;4878153;29;20112;-72
2023/06/23 07:35:11;;;;;;;14.60;9.07;;;20.00;99.90;;;;;;4862929;29;20041;-72
2023/06/23 07:37:38;;;;;;;13.73;7.85;;;;;;;;;;4878125;29;20132;-72
2023/06/23 07:40:07;;;;;;;13.02;7.35;;;19.20;99.90;;;;;;4880246;29;20393;-72
2023/06/23 07:42:33;;;;;;;12.57;6.32;;;;;;;;;;4881807;29;20493;-72
2023/06/23 07:45:00;;;;;;;10.40;6.85;;;;;;;;;;4881814;29;20507;-72
2023/06/23 07:47:26;;;;;;;11.43;6.13;;;18.90;99.90;;;;;;4881599;29;20165;-71
2023/06/23 07:49:52;;;;;;;9.88;5.70;;;;;;;;;;4881640;29;20097;-72
2023/06/23 07:52:19;;;;;;;10.57;5.82;;;;;;;;;;4881791;29;20067;-72
2023/06/23 07:54:44;;;;;;;11.80;6.22;;;20.60;99.90;;;;;;4881827;29;20048;-72
2023/06/23 07:57:12;;;;;;;10.50;5.78;;;19.00;99.90;;;;;;4866213;29;20045;-71
2023/06/23 07:59:38;;;;;;;8.65;5.90;;;;;;;;;;4881585;29;20045;-73
2023/06/23 08:02:04;;;;;;;7.18;5.40;;;18.70;99.90;;;;;;4866335;29;20068;-72
2023/06/23 08:04:30;;;;;;;9.85;5.88;;;20.80;99.90;;;;;;4882353;29;20040;-72
2023/06/23 08:06:56;;;;;;;6.63;5.30;;;;;;;;;;4881808;29;20557;-72
2023/06/23 08:09:22;;;;;;;8.13;4.90;;;;;;;;;;4881575;29;20081;-72
2023/06/23 08:11:47;;;;;;;10.15;5.95;;;19.30;99.90;;;;;;4881546;29;20040;-72
2023/06/23 08:14:13;;;;;;;8.02;5.45;;;20.90;99.90;;;;;;4881406;29;20067;-72
2023/06/23 08:16:39;;;;;;;8.15;5.70;;;20.20;99.90;;;;;;4881711;29;20041;-72
2023/06/23 08:19:05;;;;;;;9.77;5.43;;;20.00;99.90;;;;;;4881666;29;20393;-72
2023/06/23 08:21:31;;;;;;;13.98;5.75;;;;;;;;;;4881479;29;20037;-72
2023/06/23 08:23:57;;;;;;;8.60;5.72;;;19.10;99.90;;;;;;4881380;29;20052;-72
2023/06/23 08:26:23;;;;;;;11.25;6.22;;;;;;;;;;4881245;29;20045;-72
2023/06/23 08:28:49;;;;;;;12.25;5.82;;;19.80;99.90;;;;;;4865759;29;20041;-72
2023/06/23 08:31:15;;;;;;;9.70;6.32;;;;;;;;;;4881238;29;20127;-72
2023/06/23 08:33:42;;;;;;;8.88;5.82;;;20.30;99.90;;;;;;4881370;29;20389;-72
2023/06/23 08:36:08;;;;;;;7.22;5.90;;;20.90;99.90;;;;;;4881172;29;20124;-72
2023/06/23 08:38:34;;;;;;;11.15;6.25;;;;;;;;;;4865660;29;20133;-72
2023/06/23 08:41:01;;;;;;;10.20;6.80;;;20.50;99.90;;;;;;4865907;29;20044;-72
2023/06/23 08:43:28;;;;;;;11.32;5.68;;;;;;;;;;4881006;29;20055;-72
2023/06/23 08:45:59;;;;;;;10.75;6.82;;;20.60;99.90;;;;;;4881356;29;20136;-72
2023/06/23 08:48:27;;;;;;;9.75;7.05;;;20.70;99.90;;;;;;4880526;29;20053;-72
2023/06/23 08:51:01;;;;;;;13.88;6.85;;;20.80;99.90;;;;;;4880842;29;20049;-72
2023/06/23 08:53:27;;;;;;;11.10;7.10;;;21.40;99.90;;;;;;4880924;29;20060;-72
2023/06/23 08:55:54;;;;;;;13.50;7.38;;;20.30;99.90;;;;;;4880921;29;20049;-72
2023/06/23 08:58:22;;;;;;;8.85;6.53;;;21.00;99.90;;;;;;4882231;29;20049;-72
2023/06/23 09:00:49;;;;;;;10.20;6.90;;;;;;;;;;4880897;29;20044;-72
2023/06/23 09:03:15;;;;;;;12.73;6.97;;;21.60;99.90;;;;;;4880966;29;20049;-72
2023/06/23 09:05:42;;;;;;;9.30;6.30;;;;;;;;;;4880640;29;20092;-72
2023/06/23 09:08:09;;;;;;;8.65;6.15;;;20.90;99.90;;;;;;4864937;29;20040;-72
2023/06/23 09:10:35;;;;;;;10.40;6.93;;;;;;;;;;4880472;29;20052;-72
2023/06/23 09:13:01;;;;;;;10.65;6.72;;;;;;;;;;4880408;29;20048;-72
2023/06/23 09:15:28;;;;;;;11.68;7.40;;;21.20;99.90;;;;;;4880603;29;20049;-72
2023/06/23 09:17:54;;;;;;;14.23;7.20;;;;;;;;;;4865033;29;20095;-72
2023/06/23 09:20:20;;;;;;;11.07;5.88;;;;;;;;;;4880534;29;20071;-72
2023/06/23 09:22:47;;;;;;;13.93;6.50;;;21.70;99.90;;;;;;4880272;29;20045;-72
2023/06/23 09:25:38;;;;;;;11.88;6.50;;;21.70;99.90;;;;;;4880280;29;20049;-72
2023/06/23 09:28:05;;;;;;;12.20;6.43;;;22.10;99.90;;;;;;4864959;29;20104;-72
2023/06/23 09:30:36;;;;;;;12.60;6.20;;;21.80;99.00;;;;;;4880263;29;20041;-72
2023/06/23 09:33:05;;;;;;;10.18;6.30;;;22.30;99.90;;;;;;4880084;29;20051;-72
2023/06/23 09:35:31;;;;;;;11.90;7.10;;;21.80;99.90;;;;;;4880066;29;20049;-72
2023/06/23 09:37:57;;;;;;;11.70;6.85;;;22.60;99.90;;;;;;4880352;29;20057;-72
2023/06/23 09:40:26;;;;;;;10.65;7.07;;;21.40;99.90;;;;;;4880058;29;20404;-72
2023/06/23 09:42:59;;;;;;;12.85;5.80;;;22.80;99.90;;;;;;4880078;29;20430;-71
2023/06/23 09:45:25;;;;;;;12.07;7.63;;;21.60;99.90;;;;;;4864242;29;20053;-71
2023/06/23 09:47:51;;;;;;;11.02;6.70;;;22.70;99.90;;;;;;4881159;29;20049;-71
2023/06/23 09:50:21;;;;;;;11.85;7.35;;;22.90;99.90;;;;;;4882917;29;20048;-71
2023/06/23 09:52:46;;;;;;;10.93;6.40;;;21.80;99.90;;;;;;4867317;29;20528;-71
2023/06/23 09:55:12;;;;;;;10.98;6.50;;;22.20;99.90;;;;;;4882765;29;20132;-72
2023/06/23 09:57:38;;;;;;;12.10;5.60;;;23.10;99.90;;;;;;4883007;29;20441;-72
2023/06/23 10:00:08;;;;;;;9.75;5.85;;;21.80;99.90;;;;;;4882555;29;20048;-71
2023/06/23 10:02:41;;;;;;;8.80;5.80;;;22.70;97.70;;;;;;4851753;29;20080;-71
2023/06/23 10:05:07;;;;;;;10.15;5.20;;;;;;;;;;4882684;29;20055;-71
2023/06/23 10:07:33;;;;;;;8.20;4.88;;;22.20;99.90;;;;;;4882681;29;20131;-71
2023/06/23 10:10:04;;;;;;;9.70;6.15;;;23.20;99.90;;;;;;4882810;29;20048;-72
2023/06/23 10:12:32;;;;;;;10.20;4.70;;;23.00;96.30;;;;;;4882408;29;20382;-72
2023/06/23 10:14:58;;;;;;;8.35;5.13;;;23.70;99.40;;;;;;4867210;29;20084;-71
2023/06/23 10:17:24;;;;;;;10.27;5.55;;;23.10;99.40;;;;;;4867128;29;20071;-71
2023/06/23 10:19:52;;;;;;;9.40;5.60;;;22.90;99.30;;;;;;4882285;29;20049;-71
2023/06/23 10:22:19;;;;;;;7.82;5.25;;;23.30;99.30;;;;;;4882251;29;20127;-71
2023/06/23 10:24:51;;;;;;;9.32;5.60;;;23.40;97.20;;;;;;4866802;29;20056;-71
2023/06/23 10:27:24;;;;;;;8.20;4.90;;;23.30;94.70;;;;;;4882258;29;20044;-71
2023/06/23 10:29:54;;;;;;;7.25;4.43;;;23.30;94.20;;;;;;4882106;29;20083;-72
2023/06/23 10:32:24;;;;;;;8.27;5.13;;;23.70;98.00;;;;;;4882106;29;20045;-72
2023/06/23 10:34:51;;;;;;;9.13;5.30;;;23.40;97.90;;;;;;4866995;29;20040;-72
2023/06/23 10:37:22;;;;;;;10.38;5.28;;;23.00;98.00;;;;;;4882504;29;20048;-72
2023/06/23 10:39:56;;;;;;;9.13;5.10;;;23.80;98.50;;;;;;4867154;29;20048;-72
2023/06/23 10:42:22;;;;;;;9.00;5.00;;;;;;;;;;4882113;29;20048;-72
2023/06/23 10:44:52;;;;;;;9.93;5.25;;;23.40;92.60;;;;;;4882253;29;20453;-73
2023/06/23 10:47:18;;;;;;;12.65;4.55;;;;;;;;;;4881720;29;20052;-72
2023/06/23 10:49:45;;;;;;;9.80;5.50;;;23.30;94.90;;;;;;4881549;29;20405;-72
2023/06/23 10:52:12;;;;;;;9.93;5.28;;;22.80;97.10;;;;;;4866469;29;20127;-72
2023/06/23 10:54:38;;;;;;;9.10;5.35;;;23.40;97.30;;;;;;4881763;29;20366;-72
2023/06/23 10:57:11;;;;;;;9.70;5.50;;;22.70;97.10;;;;;;4881835;29;20047;-72
2023/06/23 11:00:13;;;;;;;9.25;5.18;;;23.80;96.80;;;;;;4881730;29;20525;-73
2023/06/23 11:02:52;;;;;;;7.47;4.73;;;23.70;95.90;;;;;;4852891;29;20052;-72
2023/06/23 11:05:18;;;;;;;13.68;5.10;;;;;;;;;;4881832;29;20043;-72
2023/06/23 11:08:04;;;;;;;8.48;5.60;;;23.60;89.50;;;;;;4881478;29;20076;-72
2023/06/23 11:10:47;;;;;;;9.63;4.63;;;24.10;90.60;;;;;;4881671;29;20051;-72
2023/06/23 11:13:13;;;;;;;9.30;4.70;;;23.90;94.80;;;;;;4881337;29;20052;-72
2023/06/23 11:15:38;;;;;;;10.52;5.05;;;23.20;94.80;;;;;;4881166;29;20040;-72
2023/06/23 11:18:05;;;;;;;7.63;4.15;;;;;;;;;;4881688;29;20477;-72
2023/06/23 11:20:38;;;;;;;6.90;4.00;;;24.10;85.70;;;;;;4881662;29;20051;-72
2023/06/23 11:23:09;;;;;;;10.55;3.92;;;24.70;93.50;;;;;;4881680;29;20045;-73
2023/06/23 11:25:49;;;;;;;9.43;4.22;;;24.10;93.20;;;;;;4865777;29;20478;-73
2023/06/23 11:28:35;;;;;;;8.07;3.90;;;24.30;84.00;;;;;;4881484;29;20120;-73
2023/06/23 11:31:12;;;;;;;12.55;3.85;;;24.70;91.70;;;;;;4881628;29;20449;-72
2023/06/23 11:33:40;;;;;;;10.48;3.63;;;24.60;84.30;;;;;;4881462;29;20040;-72
2023/06/23 11:36:13;;;;;;;8.07;3.60;;;24.30;91.30;;;;;;4865877;29;20048;-72
2023/06/23 11:38:41;;;;;;;9.18;4.03;;;24.50;91.40;;;;;;4881242;29;20052;-72
2023/06/23 11:41:07;;;;;;;5.38;3.30;;;24.90;86.50;;;;;;4881339;29;20045;-72
2023/06/23 11:43:34;;;;;;;5.60;3.30;;;24.40;91.30;;;;;;4881330;29;20041;-72
2023/06/23 11:46:07;;;;;;;9.60;3.45;;;24.80;84.70;;;;;;4866253;29;20116;-72
2023/06/23 11:48:35;;;;;;;13.27;3.80;;;;;;;;;;4877710;29;20098;-72
2023/06/23 11:51:03;;;;;;;13.00;3.90;;;24.40;89.90;;;;;;4878129;29;20052;-72
2023/06/23 11:53:29;;;;;;;7.10;3.83;;;25.10;83.30;;;;;;4878108;29;20049;-72
2023/06/23 11:55:55;;;;;;;8.30;4.20;;;24.90;90.90;;;;;;4862658;29;20045;-72
2023/06/23 11:58:22;;;;;;;5.45;3.53;;;;;;;;;;4862757;29;20056;-72
2023/06/23 12:00:48;;;;;;;10.60;4.47;;;;;;;;;;4877837;29;20049;-72
2023/06/23 12:03:15;;;;;;;7.82;4.40;;;25.00;91.10;;;;;;4877958;29;20045;-72
2023/06/23 12:05:44;;;;;;;8.20;4.43;;;25.10;91.20;;;;;;4878087;29;20041;-72
2023/06/23 12:08:10;;;;;;;12.50;4.25;;;;;;;;;;4877890;29;20076;-72
2023/06/23 12:10:42;;;;;;;8.70;4.18;;;23.30;79.80;;;;;;4862450;29;20041;-72
2023/06/23 12:13:13;;;;;;;7.80;3.88;;;24.80;91.10;;;;;;4877965;29;20073;-72
2023/06/23 12:15:39;;;;;;;9.02;3.80;;;;;;;;;;4878052;29;20080;-72
2023/06/23 12:18:05;;;;;;;13.13;4.47;;;24.90;87.00;;;;;;4877724;29;20131;-72
2023/06/23 12:20:35;;;;;;;6.18;3.78;;;23.80;90.50;;;;;;4878110;29;20511;-72
2023/06/23 12:23:06;;;;;;;7.53;3.55;;;24.20;90.20;;;;;;4877734;29;20045;-72
2023/06/23 12:25:36;;;;;;;7.40;3.90;;;24.20;89.70;;;;;;4863762;29;20071;-72
2023/06/23 12:28:05;;;;;;;9.50;4.00;;;25.30;89.50;;;;;;4881261;29;20049;-72
2023/06/23 12:30:43;;;;;;;10.05;4.25;;;25.10;80.90;;;;;;4866263;29;20094;-72
2023/06/23 12:33:28;;;;;;;6.72;3.53;;;25.10;89.90;;;;;;4881203;29;20047;-72
2023/06/23 12:35:59;;;;;;;10.60;4.15;;;24.80;84.80;;;;;;4881113;29;20072;-72
2023/06/23 12:38:25;;;;;;;9.90;4.35;;;23.70;90.30;;;;;;4880942;29;20051;-72
2023/06/23 12:40:52;;;;;;;7.85;3.78;;;;;;;;;;4880938;29;20489;-72
2023/06/23 12:43:18;;;;;;;4.60;3.28;;;24.20;83.20;;;;;;4865701;29;20052;-72
2023/06/23 12:45:53;;;;;;;9.13;4.00;;;24.30;90.20;;;;;;4880860;29;20052;-72
2023/06/23 12:48:22;;;;;;;8.13;4.20;;;23.90;87.20;;;;;;4883528;29;20485;-72
2023/06/23 12:50:54;;;;;;;9.00;4.10;;;23.70;90.10;;;;;;4883947;29;20496;-72
2023/06/23 12:53:20;;;;;;;9.02;4.50;;;25.00;91.00;;;;;;4883973;29;20044;-72
2023/06/23 12:55:46;;;;;;;10.95;3.70;;;;;;;;;;4883793;29;20378;-72
2023/06/23 12:58:12;;;;;;;8.05;4.38;;;25.00;91.20;;;;;;4884162;29;20052;-72
2023/06/23 13:00:37;;;;;;;10.57;4.53;;;25.60;91.40;;;;;;4883559;29;20469;-72
2023/06/23 13:03:04;;;;;;;11.10;4.55;;;;;;;;;;4868257;29;20080;-72
2023/06/23 13:05:31;;;;;;;7.03;4.22;;;25.20;91.40;;;;;;4883484;29;20489;-72
2023/06/23 13:07:57;;;;;;;10.10;4.30;;;25.20;91.30;;;;;;4883422;29;20084;-72
2023/06/23 13:10:23;;;;;;;10.43;4.60;;;25.30;91.00;;;;;;4883672;29;20075;-72
2023/06/23 13:12:49;;;;;;;6.97;3.90;;;25.80;91.10;;;;;;4883838;29;20048;-72
2023/06/23 13:15:15;;;;;;;13.32;5.13;;;25.80;90.70;;;;;;4883811;29;20396;-72
2023/06/23 13:17:41;;;;;;;8.60;4.35;;;;;;;;;;4883468;29;20480;-72